sensor_id;sensor_type;location;lat;lon;timestamp;pressure;altitude;pressure_sealevel;temperature;humidity
32324;BME280;25666;44.350;9.222;2022-09-21T00:00:33;101589.91;;;15.08;100.00
32324;BME280;25666;44.350;9.222;2022-09-21T00:02:59;101590.72;;;15.09;100.00
32324;BME280;25666;44.350;9.222;2022-09-21T00:05:25;101593.44;;;15.05;100.00
32324;BME280;25666;44.350;9.222;2022-09-21T00:07:51;101589.00;;;15.04;100.00
32324;BME280;25666;44.350;9.222;2022-09-21T00:10:18;101597.50;;;15.08;100.00
32324;BME280;25666;44.350;9.222;2022-09-21T00:12:45;101599.66;;;14.98;100.00
32324;BME280;25666;44.350;9.222;2022-09-21T00:15:14;101604.69;;;14.77;100.00
32324;BME280;25666;44.350;9.222;2022-09-21T00:17:42;101604.28;;;14.63;100.00
32324;BME280;25666;44.350;9.222;2022-09-21T00:20:08;101608.72;;;14.64;100.00
32324;BME280;25666;44.350;9.222;2022-09-21T00:22:36;101602.19;;;14.60;100.00
32324;BME280;25666;44.350;9.222;2022-09-21T00:25:03;101602.84;;;14.69;100.00
32324;BME280;25666;44.350;9.222;2022-09-21T00:27:29;101602.41;;;14.67;100.00
32324;BME280;25666;44.350;9.222;2022-09-21T00:29:59;101597.50;;;14.64;100.00
32324;BME280;25666;44.350;9.222;2022-09-21T00:32:30;101597.19;;;14.54;100.00
32324;BME280;25666;44.350;9.222;2022-09-21T00:34:57;101591.91;;;14.64;100.00
32324;BME280;25666;44.350;9.222;2022-09-21T00:37:27;101598.72;;;14.79;100.00
32324;BME280;25666;44.350;9.222;2022-09-21T00:39:53;101600.34;;;14.80;100.00
32324;BME280;25666;44.350;9.222;2022-09-21T00:42:21;101593.94;;;14.79;100.00
32324;BME280;25666;44.350;9.222;2022-09-21T00:44:47;101601.72;;;14.86;100.00
32324;BME280;25666;44.350;9.222;2022-09-21T00:47:30;101594.13;;;14.86;100.00
32324;BME280;25666;44.350;9.222;2022-09-21T00:49:59;101598.38;;;14.80;100.00
32324;BME280;25666;44.350;9.222;2022-09-21T00:52:28;101599.81;;;14.74;100.00
32324;BME280;25666;44.350;9.222;2022-09-21T00:55:08;101599.81;;;14.74;100.00
32324;BME280;25666;44.350;9.222;2022-09-21T00:57:37;101602.25;;;14.76;100.00
32324;BME280;25666;44.350;9.222;2022-09-21T01:00:06;101600.53;;;14.71;100.00
32324;BME280;25666;44.350;9.222;2022-09-21T01:02:34;101601.28;;;14.56;100.00
32324;BME280;25666;44.350;9.222;2022-09-21T01:05:00;101607.28;;;14.42;100.00
32324;BME280;25666;44.350;9.222;2022-09-21T01:07:30;101612.28;;;14.49;100.00
32324;BME280;25666;44.350;9.222;2022-09-21T01:09:59;101612.19;;;14.45;100.00
32324;BME280;25666;44.350;9.222;2022-09-21T01:13:03;101616.03;;;14.53;100.00
32324;BME280;25666;44.350;9.222;2022-09-21T01:20:59;101624.34;;;14.37;100.00
32324;BME280;25666;44.350;9.222;2022-09-21T01:23:41;101627.72;;;14.43;100.00
32324;BME280;25666;44.350;9.222;2022-09-21T01:31:53;101621.13;;;14.79;100.00
32324;BME280;25666;44.350;9.222;2022-09-21T01:34:37;101630.53;;;14.71;100.00
32324;BME280;25666;44.350;9.222;2022-09-21T01:37:09;101630.44;;;14.67;100.00
32324;BME280;25666;44.350;9.222;2022-09-21T01:39:37;101632.47;;;14.55;100.00
32324;BME280;25666;44.350;9.222;2022-09-21T01:42:07;101634.81;;;14.53;100.00
32324;BME280;25666;44.350;9.222;2022-09-21T01:44:34;101631.75;;;14.58;100.00
32324;BME280;25666;44.350;9.222;2022-09-21T01:47:02;101630.75;;;14.50;100.00
32324;BME280;25666;44.350;9.222;2022-09-21T01:49:35;101628.72;;;14.51;100.00
32324;BME280;25666;44.350;9.222;2022-09-21T01:52:38;101632.81;;;14.53;100.00
32324;BME280;25666;44.350;9.222;2022-09-21T01:55:21;101629.69;;;14.42;100.00
32324;BME280;25666;44.350;9.222;2022-09-21T01:58:03;101631.44;;;14.47;100.00
32324;BME280;25666;44.350;9.222;2022-09-21T02:00:31;101627.78;;;14.59;100.00
32324;BME280;25666;44.350;9.222;2022-09-21T02:03:04;101634.81;;;14.53;100.00
32324;BME280;25666;44.350;9.222;2022-09-21T02:05:34;101632.72;;;14.50;100.00
32324;BME280;25666;44.350;9.222;2022-09-21T02:08:00;101631.34;;;14.43;100.00
32324;BME280;25666;44.350;9.222;2022-09-21T02:10:39;101642.66;;;14.47;100.00
32324;BME280;25666;44.350;9.222;2022-09-21T02:13:07;101643.94;;;14.50;100.00
32324;BME280;25666;44.350;9.222;2022-09-21T02:18:45;101641.94;;;14.50;100.00
32324;BME280;25666;44.350;9.222;2022-09-21T02:22:08;101634.38;;;14.38;100.00
32324;BME280;25666;44.350;9.222;2022-09-21T02:24:59;101640.81;;;14.15;100.00
32324;BME280;25666;44.350;9.222;2022-09-21T02:35:02;101627.88;;;14.34;100.00
32324;BME280;25666;44.350;9.222;2022-09-21T02:37:39;101624.09;;;14.42;100.00
32324;BME280;25666;44.350;9.222;2022-09-21T02:40:25;101619.69;;;14.17;100.00
32324;BME280;25666;44.350;9.222;2022-09-21T02:42:58;101623.31;;;14.18;100.00
32324;BME280;25666;44.350;9.222;2022-09-21T02:45:29;101627.72;;;14.31;100.00
32324;BME280;25666;44.350;9.222;2022-09-21T02:48:05;101626.56;;;14.20;100.00
32324;BME280;25666;44.350;9.222;2022-09-21T02:50:52;101624.25;;;14.22;100.00
32324;BME280;25666;44.350;9.222;2022-09-21T02:53:29;101620.16;;;14.19;100.00
32324;BME280;25666;44.350;9.222;2022-09-21T02:55:57;101624.84;;;14.15;100.00
32324;BME280;25666;44.350;9.222;2022-09-21T02:58:27;101625.03;;;14.22;100.00
32324;BME280;25666;44.350;9.222;2022-09-21T03:00:55;101633.25;;;14.15;100.00
32324;BME280;25666;44.350;9.222;2022-09-21T03:03:23;101621.78;;;14.20;100.00
32324;BME280;25666;44.350;9.222;2022-09-21T03:05:52;101627.72;;;14.31;100.00
32324;BME280;25666;44.350;9.222;2022-09-21T03:08:19;101626.78;;;14.27;100.00
32324;BME280;25666;44.350;9.222;2022-09-21T03:10:44;101620.94;;;14.32;100.00
32324;BME280;25666;44.350;9.222;2022-09-21T03:13:11;101622.13;;;14.31;100.00
32324;BME280;25666;44.350;9.222;2022-09-21T03:15:38;101628.00;;;14.14;100.00
32324;BME280;25666;44.350;9.222;2022-09-21T03:18:05;101622.00;;;14.27;100.00
32324;BME280;25666;44.350;9.222;2022-09-21T03:20:34;101627.13;;;14.25;100.00
32324;BME280;25666;44.350;9.222;2022-09-21T03:23:00;101620.25;;;14.23;100.00
32324;BME280;25666;44.350;9.222;2022-09-21T03:25:28;101624.44;;;14.29;100.00
32324;BME280;25666;44.350;9.222;2022-09-21T03:27:55;101616.03;;;14.41;100.00
32324;BME280;25666;44.350;9.222;2022-09-21T03:30:25;101622.94;;;14.43;100.00
32324;BME280;25666;44.350;9.222;2022-09-21T03:32:52;101621.41;;;14.46;100.00
32324;BME280;25666;44.350;9.222;2022-09-21T03:35:19;101616.63;;;14.46;100.00
32324;BME280;25666;44.350;9.222;2022-09-21T03:37:45;101615.19;;;14.53;100.00
32324;BME280;25666;44.350;9.222;2022-09-21T03:40:11;101611.03;;;14.46;100.00
32324;BME280;25666;44.350;9.222;2022-09-21T03:42:38;101613.94;;;14.50;100.00
32324;BME280;25666;44.350;9.222;2022-09-21T03:45:04;101623.34;;;14.58;100.00
32324;BME280;25666;44.350;9.222;2022-09-21T03:47:30;101620.75;;;14.65;100.00
32324;BME280;25666;44.350;9.222;2022-09-21T03:49:56;101628.06;;;14.69;100.00
32324;BME280;25666;44.350;9.222;2022-09-21T03:52:21;101620.59;;;14.45;100.00
32324;BME280;25666;44.350;9.222;2022-09-21T03:54:47;101626.91;;;14.42;100.00
32324;BME280;25666;44.350;9.222;2022-09-21T03:57:12;101638.09;;;14.42;100.00
32324;BME280;25666;44.350;9.222;2022-09-21T03:59:38;101635.66;;;14.29;100.00
32324;BME280;25666;44.350;9.222;2022-09-21T04:02:03;101634.38;;;14.38;100.00
32324;BME280;25666;44.350;9.222;2022-09-21T04:04:29;101637.72;;;14.44;100.00
32324;BME280;25666;44.350;9.222;2022-09-21T04:06:54;101633.22;;;14.39;100.00
32324;BME280;25666;44.350;9.222;2022-09-21T04:09:20;101632.59;;;14.46;100.00
32324;BME280;25666;44.350;9.222;2022-09-21T04:11:45;101640.03;;;14.54;100.00
32324;BME280;25666;44.350;9.222;2022-09-21T04:14:12;101638.66;;;14.48;100.00
32324;BME280;25666;44.350;9.222;2022-09-21T04:16:38;101640.31;;;14.49;100.00
32324;BME280;25666;44.350;9.222;2022-09-21T04:19:04;101640.75;;;14.51;100.00
32324;BME280;25666;44.350;9.222;2022-09-21T04:21:29;101650.44;;;14.54;100.00
32324;BME280;25666;44.350;9.222;2022-09-21T04:23:55;101649.16;;;14.51;100.00
32324;BME280;25666;44.350;9.222;2022-09-21T04:26:28;101655.69;;;14.55;100.00
32324;BME280;25666;44.350;9.222;2022-09-21T04:28:55;101657.00;;;14.45;100.00
32324;BME280;25666;44.350;9.222;2022-09-21T04:31:21;101653.28;;;14.41;100.00
32324;BME280;25666;44.350;9.222;2022-09-21T04:33:48;101661.78;;;14.45;100.00
32324;BME280;25666;44.350;9.222;2022-09-21T04:36:15;101663.88;;;14.48;100.00
32324;BME280;25666;44.350;9.222;2022-09-21T04:38:41;101662.16;;;14.43;100.00
32324;BME280;25666;44.350;9.222;2022-09-21T04:41:06;101664.25;;;14.22;100.00
32324;BME280;25666;44.350;9.222;2022-09-21T04:43:32;101662.94;;;14.32;100.00
32324;BME280;25666;44.350;9.222;2022-09-21T04:45:57;101665.41;;;14.45;100.00
32324;BME280;25666;44.350;9.222;2022-09-21T04:48:28;101676.03;;;14.40;100.00
32324;BME280;25666;44.350;9.222;2022-09-21T04:50:53;101668.88;;;14.55;100.00
32324;BME280;25666;44.350;9.222;2022-09-21T04:53:19;101672.81;;;14.66;100.00
32324;BME280;25666;44.350;9.222;2022-09-21T04:55:44;101672.88;;;14.29;100.00
32324;BME280;25666;44.350;9.222;2022-09-21T04:58:10;101676.50;;;14.42;100.00
32324;BME280;25666;44.350;9.222;2022-09-21T05:00:36;101675.06;;;14.48;100.00
32324;BME280;25666;44.350;9.222;2022-09-21T05:03:01;101679.75;;;14.56;100.00
32324;BME280;25666;44.350;9.222;2022-09-21T05:05:26;101682.84;;;14.67;100.00
32324;BME280;25666;44.350;9.222;2022-09-21T05:07:52;101683.78;;;14.71;100.00
32324;BME280;25666;44.350;9.222;2022-09-21T05:10:18;101681.94;;;14.63;100.00
32324;BME280;25666;44.350;9.222;2022-09-21T05:12:43;101687.44;;;14.59;100.00
32324;BME280;25666;44.350;9.222;2022-09-21T05:15:09;101690.09;;;14.68;100.00
32324;BME280;25666;44.350;9.222;2022-09-21T05:17:39;101681.25;;;14.54;100.00
32324;BME280;25666;44.350;9.222;2022-09-21T05:20:05;101695.13;;;14.62;100.00
32324;BME280;25666;44.350;9.222;2022-09-21T05:22:31;101699.47;;;14.60;100.00
32324;BME280;25666;44.350;9.222;2022-09-21T05:24:56;101694.53;;;14.69;100.00
32324;BME280;25666;44.350;9.222;2022-09-21T05:27:22;101694.31;;;14.89;100.00
32324;BME280;25666;44.350;9.222;2022-09-21T05:29:48;101704.56;;;14.97;100.00
32324;BME280;25666;44.350;9.222;2022-09-21T05:40:02;101717.72;;;15.37;100.00
32324;BME280;25666;44.350;9.222;2022-09-21T05:42:28;101715.69;;;15.65;100.00
32324;BME280;25666;44.350;9.222;2022-09-21T05:44:54;101725.19;;;15.61;100.00
32324;BME280;25666;44.350;9.222;2022-09-21T05:52:55;101730.81;;;15.92;100.00
32324;BME280;25666;44.350;9.222;2022-09-21T05:55:57;101739.13;;;16.04;100.00
32324;BME280;25666;44.350;9.222;2022-09-21T05:58:39;101738.03;;;17.32;100.00
32324;BME280;25666;44.350;9.222;2022-09-21T06:03:53;101739.91;;;19.24;100.00
32324;BME280;25666;44.350;9.222;2022-09-21T06:06:19;101741.16;;;20.00;100.00
32324;BME280;25666;44.350;9.222;2022-09-21T06:08:45;101741.97;;;20.48;100.00
32324;BME280;25666;44.350;9.222;2022-09-21T06:11:11;101744.06;;;21.48;100.00
32324;BME280;25666;44.350;9.222;2022-09-21T06:13:36;101745.34;;;21.79;100.00
32324;BME280;25666;44.350;9.222;2022-09-21T06:16:03;101754.31;;;21.99;100.00
32324;BME280;25666;44.350;9.222;2022-09-21T06:18:28;101745.31;;;22.78;100.00
32324;BME280;25666;44.350;9.222;2022-09-21T06:20:54;101749.56;;;23.42;100.00
32324;BME280;25666;44.350;9.222;2022-09-21T06:23:20;101755.59;;;24.10;100.00
32324;BME280;25666;44.350;9.222;2022-09-21T06:25:52;101745.59;;;23.15;100.00
32324;BME280;25666;44.350;9.222;2022-09-21T06:28:18;101747.78;;;22.69;100.00
32324;BME280;25666;44.350;9.222;2022-09-21T06:30:52;101754.97;;;21.43;100.00
32324;BME280;25666;44.350;9.222;2022-09-21T06:33:19;101762.38;;;20.82;100.00
32324;BME280;25666;44.350;9.222;2022-09-21T06:35:58;101756.38;;;20.29;100.00
32324;BME280;25666;44.350;9.222;2022-09-21T06:38:25;101754.50;;;21.19;100.00
32324;BME280;25666;44.350;9.222;2022-09-21T06:40:51;101753.59;;;23.45;100.00
32324;BME280;25666;44.350;9.222;2022-09-21T06:43:17;101757.34;;;23.21;100.00
32324;BME280;25666;44.350;9.222;2022-09-21T06:45:43;101760.94;;;23.35;100.00
32324;BME280;25666;44.350;9.222;2022-09-21T06:48:08;101756.59;;;23.03;100.00
32324;BME280;25666;44.350;9.222;2022-09-21T06:50:34;101763.22;;;23.65;100.00
32324;BME280;25666;44.350;9.222;2022-09-21T06:53:00;101757.94;;;21.92;100.00
32324;BME280;25666;44.350;9.222;2022-09-21T06:55:27;101772.69;;;21.18;100.00
32324;BME280;25666;44.350;9.222;2022-09-21T06:58:02;101763.47;;;20.63;100.00
32324;BME280;25666;44.350;9.222;2022-09-21T07:00:28;101768.34;;;20.19;100.00
32324;BME280;25666;44.350;9.222;2022-09-21T07:02:54;101772.09;;;19.86;100.00
32324;BME280;25666;44.350;9.222;2022-09-21T07:05:20;101769.88;;;19.65;100.00
32324;BME280;25666;44.350;9.222;2022-09-21T07:07:46;101772.00;;;19.42;100.00
32324;BME280;25666;44.350;9.222;2022-09-21T07:10:11;101779.88;;;19.26;100.00
32324;BME280;25666;44.350;9.222;2022-09-21T07:12:37;101785.72;;;19.10;100.00
32324;BME280;25666;44.350;9.222;2022-09-21T07:15:04;101793.66;;;19.01;100.00
32324;BME280;25666;44.350;9.222;2022-09-21T07:17:35;101796.03;;;18.99;100.00
32324;BME280;25666;44.350;9.222;2022-09-21T07:20:01;101798.81;;;18.96;100.00
32324;BME280;25666;44.350;9.222;2022-09-21T07:22:28;101798.94;;;18.77;100.00
32324;BME280;25666;44.350;9.222;2022-09-21T07:24:54;101798.09;;;18.73;100.00
32324;BME280;25666;44.350;9.222;2022-09-21T07:27:20;101802.16;;;18.75;100.00
32324;BME280;25666;44.350;9.222;2022-09-21T07:29:45;101799.63;;;18.66;100.00
32324;BME280;25666;44.350;9.222;2022-09-21T07:32:12;101810.78;;;18.59;100.00
32324;BME280;25666;44.350;9.222;2022-09-21T07:34:37;101809.41;;;18.50;100.00
32324;BME280;25666;44.350;9.222;2022-09-21T07:37:03;101811.25;;;18.65;100.00
32324;BME280;25666;44.350;9.222;2022-09-21T07:39:29;101820.44;;;18.85;100.00
32324;BME280;25666;44.350;9.222;2022-09-21T07:41:55;101822.44;;;18.84;100.00
32324;BME280;25666;44.350;9.222;2022-09-21T07:44:22;101828.84;;;18.81;100.00
32324;BME280;25666;44.350;9.222;2022-09-21T07:46:48;101828.66;;;18.70;100.00
32324;BME280;25666;44.350;9.222;2022-09-21T07:49:13;101835.41;;;18.62;100.00
32324;BME280;25666;44.350;9.222;2022-09-21T07:51:39;101836.09;;;18.56;100.00
32324;BME280;25666;44.350;9.222;2022-09-21T07:54:04;101835.28;;;18.55;100.00
32324;BME280;25666;44.350;9.222;2022-09-21T07:56:30;101839.78;;;18.60;100.00
32324;BME280;25666;44.350;9.222;2022-09-21T07:58:56;101843.03;;;18.62;100.00
32324;BME280;25666;44.350;9.222;2022-09-21T08:01:40;101848.31;;;18.63;100.00
32324;BME280;25666;44.350;9.222;2022-09-21T08:04:08;101845.50;;;18.63;100.00
32324;BME280;25666;44.350;9.222;2022-09-21T08:06:35;101854.75;;;18.64;100.00
32324;BME280;25666;44.350;9.222;2022-09-21T08:09:02;101852.75;;;18.64;100.00
32324;BME280;25666;44.350;9.222;2022-09-21T08:11:29;101852.22;;;18.82;100.00
32324;BME280;25666;44.350;9.222;2022-09-21T08:14:01;101846.84;;;18.99;100.00
32324;BME280;25666;44.350;9.222;2022-09-21T08:16:28;101856.66;;;19.09;100.00
32324;BME280;25666;44.350;9.222;2022-09-21T08:18:54;101856.00;;;19.19;100.00
32324;BME280;25666;44.350;9.222;2022-09-21T08:21:19;101846.03;;;19.29;100.00
32324;BME280;25666;44.350;9.222;2022-09-21T08:23:48;101850.47;;;19.30;100.00
32324;BME280;25666;44.350;9.222;2022-09-21T08:26:15;101852.16;;;19.34;100.00
32324;BME280;25666;44.350;9.222;2022-09-21T08:28:44;101848.25;;;19.42;100.00
32324;BME280;25666;44.350;9.222;2022-09-21T08:31:13;101854.91;;;19.57;100.00
32324;BME280;25666;44.350;9.222;2022-09-21T08:33:39;101853.78;;;19.65;100.00
32324;BME280;25666;44.350;9.222;2022-09-21T08:36:05;101847.88;;;19.77;100.00
32324;BME280;25666;44.350;9.222;2022-09-21T08:38:33;101854.50;;;19.92;100.00
32324;BME280;25666;44.350;9.222;2022-09-21T08:40:59;101860.25;;;20.02;100.00
32324;BME280;25666;44.350;9.222;2022-09-21T08:43:38;101856.69;;;20.09;100.00
32324;BME280;25666;44.350;9.222;2022-09-21T08:46:36;101859.97;;;20.11;100.00
32324;BME280;25666;44.350;9.222;2022-09-21T08:49:17;101855.59;;;20.20;100.00
32324;BME280;25666;44.350;9.222;2022-09-21T08:52:06;101855.38;;;20.36;100.00
32324;BME280;25666;44.350;9.222;2022-09-21T08:54:42;101845.00;;;20.51;100.00
32324;BME280;25666;44.350;9.222;2022-09-21T08:57:15;101851.59;;;20.65;100.00
32324;BME280;25666;44.350;9.222;2022-09-21T08:59:44;101850.88;;;20.79;100.00
32324;BME280;25666;44.350;9.222;2022-09-21T09:07:56;101854.34;;;21.09;100.00
32324;BME280;25666;44.350;9.222;2022-09-21T09:16:13;101857.41;;;21.55;100.00
32324;BME280;25666;44.350;9.222;2022-09-21T09:21:38;101860.69;;;21.61;100.00
32324;BME280;25666;44.350;9.222;2022-09-21T09:26:38;101857.09;;;21.78;100.00
32324;BME280;25666;44.350;9.222;2022-09-21T09:31:51;101852.69;;;21.91;94.36
32324;BME280;25666;44.350;9.222;2022-09-21T09:34:27;101850.59;;;21.81;100.00
32324;BME280;25666;44.350;9.222;2022-09-21T09:37:15;101853.06;;;21.86;100.00
32324;BME280;25666;44.350;9.222;2022-09-21T09:39:42;101848.59;;;21.81;99.20
32324;BME280;25666;44.350;9.222;2022-09-21T09:45:17;101852.22;;;21.78;94.22
32324;BME280;25666;44.350;9.222;2022-09-21T09:50:34;101849.81;;;21.84;83.68
32324;BME280;25666;44.350;9.222;2022-09-21T09:53:14;101842.56;;;21.94;82.29
32324;BME280;25666;44.350;9.222;2022-09-21T09:55:55;101839.75;;;21.97;88.78
32324;BME280;25666;44.350;9.222;2022-09-21T10:00:53;101840.56;;;21.94;79.01
32324;BME280;25666;44.350;9.222;2022-09-21T10:03:25;101847.47;;;22.11;74.93
32324;BME280;25666;44.350;9.222;2022-09-21T10:05:51;101847.88;;;22.16;91.71
32324;BME280;25666;44.350;9.222;2022-09-21T10:11:02;101853.16;;;22.28;92.76
32324;BME280;25666;44.350;9.222;2022-09-21T10:13:29;101849.13;;;22.29;94.64
32324;BME280;25666;44.350;9.222;2022-09-21T10:16:03;101849.94;;;22.37;98.42
32324;BME280;25666;44.350;9.222;2022-09-21T10:18:37;101851.97;;;22.29;97.90
32324;BME280;25666;44.350;9.222;2022-09-21T10:21:17;101861.66;;;22.25;100.00
32324;BME280;25666;44.350;9.222;2022-09-21T10:23:47;101849.91;;;22.19;96.63
32324;BME280;25666;44.350;9.222;2022-09-21T10:26:13;101860.03;;;22.13;99.27
32324;BME280;25666;44.350;9.222;2022-09-21T10:29:00;101852.75;;;22.05;95.20
32324;BME280;25666;44.350;9.222;2022-09-21T10:31:30;101865.28;;;22.04;97.73
32324;BME280;25666;44.350;9.222;2022-09-21T10:34:15;101860.81;;;21.93;97.29
32324;BME280;25666;44.350;9.222;2022-09-21T10:36:48;101861.56;;;21.82;96.88
32324;BME280;25666;44.350;9.222;2022-09-21T10:41:59;101867.59;;;21.67;96.51
32324;BME280;25666;44.350;9.222;2022-09-21T10:44:27;101865.56;;;21.67;98.51
32324;BME280;25666;44.350;9.222;2022-09-21T10:46:53;101867.94;;;21.62;95.68
32324;BME280;25666;44.350;9.222;2022-09-21T10:49:27;101872.00;;;21.61;98.34
32324;BME280;25666;44.350;9.222;2022-09-21T10:51:56;101867.16;;;21.65;95.67
32324;BME280;25666;44.350;9.222;2022-09-21T10:54:28;101871.59;;;21.62;93.81
32324;BME280;25666;44.350;9.222;2022-09-21T10:56:59;101874.50;;;21.76;93.24
32324;BME280;25666;44.350;9.222;2022-09-21T10:59:28;101865.59;;;21.85;87.89
32324;BME280;25666;44.350;9.222;2022-09-21T11:01:56;101869.25;;;21.82;92.40
32324;BME280;25666;44.350;9.222;2022-09-21T11:04:35;101863.66;;;21.93;87.89
32324;BME280;25666;44.350;9.222;2022-09-21T11:07:14;101860.41;;;21.94;89.91
32324;BME280;25666;44.350;9.222;2022-09-21T11:09:52;101861.16;;;21.84;89.81
32324;BME280;25666;44.350;9.222;2022-09-21T11:12:56;101863.63;;;21.89;97.25
32324;BME280;25666;44.350;9.222;2022-09-21T11:18:17;101878.16;;;21.84;95.73
32324;BME280;25666;44.350;9.222;2022-09-21T11:20:58;101870.06;;;21.86;96.30
32324;BME280;25666;44.350;9.222;2022-09-21T11:23:51;101880.22;;;21.91;96.50
32324;BME280;25666;44.350;9.222;2022-09-21T11:28:53;101873.41;;;22.13;94.04
32324;BME280;25666;44.350;9.222;2022-09-21T11:37:06;101870.59;;;22.30;93.31
32324;BME280;25666;44.350;9.222;2022-09-21T11:40:01;101877.88;;;22.24;93.75
32324;BME280;25666;44.350;9.222;2022-09-21T11:48:21;101877.44;;;22.12;91.05
32324;BME280;25666;44.350;9.222;2022-09-21T11:57:25;101880.72;;;22.17;87.58
32324;BME280;25666;44.350;9.222;2022-09-21T12:00:15;101876.66;;;22.11;89.93
32324;BME280;25666;44.350;9.222;2022-09-21T12:03:05;101871.75;;;22.01;93.34
32324;BME280;25666;44.350;9.222;2022-09-21T12:05:47;101869.31;;;21.96;94.22
32324;BME280;25666;44.350;9.222;2022-09-21T12:08:26;101869.31;;;21.89;95.18
32324;BME280;25666;44.350;9.222;2022-09-21T12:13:54;101879.34;;;21.76;97.70
32324;BME280;25666;44.350;9.222;2022-09-21T12:16:55;101872.84;;;21.72;98.08
32324;BME280;25666;44.350;9.222;2022-09-21T12:19:44;101878.88;;;21.60;99.41
32324;BME280;25666;44.350;9.222;2022-09-21T12:22:25;101873.63;;;21.62;100.00
32324;BME280;25666;44.350;9.222;2022-09-21T12:25:19;101869.19;;;21.68;96.09
32324;BME280;25666;44.350;9.222;2022-09-21T12:28:03;101872.88;;;21.79;95.03
32324;BME280;25666;44.350;9.222;2022-09-21T12:30:32;101872.88;;;21.79;94.79
32324;BME280;25666;44.350;9.222;2022-09-21T12:33:11;101871.22;;;21.74;91.50
32324;BME280;25666;44.350;9.222;2022-09-21T12:35:50;101877.31;;;21.73;93.98
32324;BME280;25666;44.350;9.222;2022-09-21T12:38:23;101874.06;;;21.67;93.82
32324;BME280;25666;44.350;9.222;2022-09-21T12:40:54;101869.19;;;21.61;94.83
32324;BME280;25666;44.350;9.222;2022-09-21T12:46:27;101879.69;;;21.60;100.00
32324;BME280;25666;44.350;9.222;2022-09-21T12:48:55;101865.56;;;21.71;100.00
32324;BME280;25666;44.350;9.222;2022-09-21T12:51:38;101873.25;;;21.77;100.00
32324;BME280;25666;44.350;9.222;2022-09-21T12:57:25;101871.75;;;21.98;100.00
32324;BME280;25666;44.350;9.222;2022-09-21T13:00:07;101864.47;;;22.00;100.00
32324;BME280;25666;44.350;9.222;2022-09-21T13:02:49;101867.69;;;21.95;100.00
32324;BME280;25666;44.350;9.222;2022-09-21T13:10:42;101874.94;;;21.85;100.00
32324;BME280;25666;44.350;9.222;2022-09-21T13:13:36;101868.91;;;21.91;100.00
32324;BME280;25666;44.350;9.222;2022-09-21T13:16:04;101873.75;;;21.94;100.00
32324;BME280;25666;44.350;9.222;2022-09-21T13:18:36;101864.88;;;21.95;100.00
32324;BME280;25666;44.350;9.222;2022-09-21T13:21:20;101863.25;;;21.94;100.00
32324;BME280;25666;44.350;9.222;2022-09-21T13:24:03;101865.66;;;21.99;100.00
32324;BME280;25666;44.350;9.222;2022-09-21T13:29:05;101859.66;;;22.11;100.00
32324;BME280;25666;44.350;9.222;2022-09-21T13:42:45;101846.66;;;22.10;100.00
32324;BME280;25666;44.350;9.222;2022-09-21T13:47:46;101846.28;;;22.08;100.00
32324;BME280;25666;44.350;9.222;2022-09-21T13:52:51;101845.41;;;21.94;100.00
32324;BME280;25666;44.350;9.222;2022-09-21T13:55:30;101849.06;;;21.94;100.00
32324;BME280;25666;44.350;9.222;2022-09-21T13:57:59;101851.03;;;21.86;100.00
32324;BME280;25666;44.350;9.222;2022-09-21T14:03:16;101855.88;;;21.75;100.00
32324;BME280;25666;44.350;9.222;2022-09-21T14:05:47;101847.34;;;21.72;100.00
32324;BME280;25666;44.350;9.222;2022-09-21T14:13:38;101846.16;;;21.83;100.00
32324;BME280;25666;44.350;9.222;2022-09-21T14:18:53;101841.72;;;21.79;100.00
32324;BME280;25666;44.350;9.222;2022-09-21T14:21:20;101839.69;;;21.83;100.00
32324;BME280;25666;44.350;9.222;2022-09-21T14:26:34;101837.25;;;21.78;100.00
32324;BME280;25666;44.350;9.222;2022-09-21T14:29:18;101837.22;;;21.71;100.00
32324;BME280;25666;44.350;9.222;2022-09-21T14:31:46;101836.78;;;21.65;100.00
32324;BME280;25666;44.350;9.222;2022-09-21T14:34:19;101836.38;;;21.60;100.00
32324;BME280;25666;44.350;9.222;2022-09-21T14:36:50;101833.50;;;21.53;100.00
32324;BME280;25666;44.350;9.222;2022-09-21T14:39:22;101831.06;;;21.44;100.00
32324;BME280;25666;44.350;9.222;2022-09-21T14:41:51;101828.56;;;21.32;100.00
32324;BME280;25666;44.350;9.222;2022-09-21T14:44:24;101828.97;;;21.30;100.00
32324;BME280;25666;44.350;9.222;2022-09-21T14:47:15;101826.94;;;21.27;100.00
32324;BME280;25666;44.350;9.222;2022-09-21T15:01:33;101835.16;;;21.54;100.00
32324;BME280;25666;44.350;9.222;2022-09-21T15:07:01;101834.81;;;21.73;100.00
32324;BME280;25666;44.350;9.222;2022-09-21T15:18:58;101828.34;;;21.76;100.00
32324;BME280;25666;44.350;9.222;2022-09-21T15:21:29;101818.19;;;21.75;100.00
32324;BME280;25666;44.350;9.222;2022-09-21T15:23:57;101826.72;;;21.75;100.00
32324;BME280;25666;44.350;9.222;2022-09-21T15:26:31;101824.66;;;21.68;100.00
32324;BME280;25666;44.350;9.222;2022-09-21T15:29:02;101821.00;;;21.68;100.00
32324;BME280;25666;44.350;9.222;2022-09-21T15:31:33;101814.13;;;21.69;100.00
32324;BME280;25666;44.350;9.222;2022-09-21T15:33:59;101812.91;;;21.66;100.00
32324;BME280;25666;44.350;9.222;2022-09-21T15:36:28;101816.56;;;21.67;100.00
32324;BME280;25666;44.350;9.222;2022-09-21T15:38:55;101818.19;;;21.64;100.00
32324;BME280;25666;44.350;9.222;2022-09-21T15:41:43;101816.56;;;21.63;100.00
32324;BME280;25666;44.350;9.222;2022-09-21T15:44:25;101810.88;;;21.60;100.00
32324;BME280;25666;44.350;9.222;2022-09-21T15:46:56;101808.03;;;21.60;100.00
32324;BME280;25666;44.350;9.222;2022-09-21T15:49:25;101810.88;;;21.56;100.00